Time;durP1;ratioP1;P1;durP2;ratioP2;P2;SDS_P1;SDS_P2;PMS_P1;PMS_P2;Temp;Humidity;BMP_temperature;BMP_pressure;BME280_temperature;BME280_humidity;BME280_pressure;Samples;Min_cycle;Max_cycle;Signal;HPM_P1;HPM_P2
2023/05/26 00:00:55;;;;;;;;;;;11.00;99.90;;;;;;8202570;28;19957;-84
2023/05/26 00:04:59;;;;;;;;;;;10.70;99.90;;;;;;8204261;28;19958;-84
2023/05/26 00:08:59;;;;;;;;;;;10.30;99.90;;;;;;8197121;28;19922;-84
2023/05/26 00:13:00;;;;;;;;;;;10.40;99.90;;;;;;8206580;28;20049;-85
2023/05/26 00:17:02;;;;;;;;;;;10.40;99.90;;;;;;8201966;28;19910;-85
2023/05/26 00:21:03;;;;;;;;;;;9.90;99.90;;;;;;8209573;28;20403;-85
2023/05/26 00:25:04;;;;;;;;;;;9.80;99.90;;;;;;8213411;28;19910;-86
2023/05/26 00:29:04;;;;;;;;;;;9.60;99.90;;;;;;8206886;28;19977;-84
2023/05/26 00:33:05;;;;;;;;;;;10.30;99.90;;;;;;8216340;28;19933;-85
2023/05/26 00:37:05;;;;;;;;;;;10.60;99.90;;;;;;8212074;28;20169;-84
2023/05/26 00:41:06;;;;;;;;;;;9.70;99.90;;;;;;8204936;28;19918;-85
2023/05/26 00:45:07;;;;;;;;;;;9.80;99.90;;;;;;8208599;28;19922;-83
2023/05/26 00:49:08;;;;;;;;;;;9.60;99.90;;;;;;8196131;28;19961;-83
2023/05/26 00:53:10;;;;;;;;;;;9.50;99.90;;;;;;8200980;28;20005;-83
2023/05/26 00:57:10;;;;;;;;;;;9.60;99.90;;;;;;8204185;28;19977;-84
2023/05/26 01:01:12;;;;;;;;;;;10.00;99.90;;;;;;8215635;28;19997;-83
2023/05/26 01:05:15;;;;;;;;;;;9.60;99.90;;;;;;8205462;28;19911;-83
2023/05/26 01:09:16;;;;;;;;;;;8.30;99.90;;;;;;8206767;28;19921;-83
2023/05/26 01:13:20;;;;;;;;;;;9.10;99.90;;;;;;8211676;28;19940;-84
2023/05/26 01:17:28;;;;;;;;;;;9.30;99.90;;;;;;8215558;28;19957;-83
2023/05/26 01:21:32;;;;;;;;;;;8.90;99.90;;;;;;8206676;28;19910;-83
2023/05/26 01:25:36;;;;;;;;;;;9.10;99.90;;;;;;8195227;28;19942;-83
2023/05/26 01:29:37;;;;;;;;;;;9.20;99.90;;;;;;8207264;28;20569;-83
2023/05/26 01:33:37;;;;;;;;;;;8.90;99.90;;;;;;8214975;28;19914;-83
2023/05/26 01:37:38;;;;;;;;;;;8.90;99.90;;;;;;8205667;28;20005;-83
2023/05/26 01:41:44;;;;;;;;;;;9.50;99.90;;;;;;8207463;28;19915;-83
2023/05/26 01:46:05;;;;;;;;;;;8.80;99.90;;;;;;8205979;28;19919;-83
2023/05/26 01:50:07;;;;;;;;;;;9.70;99.90;;;;;;8206712;28;19966;-83
2023/05/26 01:54:10;;;;;;;;;;;8.50;99.90;;;;;;8210911;28;19911;-84
2023/05/26 01:58:11;;;;;;;;;;;9.00;99.90;;;;;;8211337;28;19910;-83
2023/05/26 02:02:11;;;;;;;;;;;8.60;99.90;;;;;;8205362;28;20005;-83
2023/05/26 02:10:50;;;;;;;;;;;8.50;99.90;;;;;;8208887;28;19960;-83
2023/05/26 02:14:51;;;;;;;;;;;9.40;99.90;;;;;;8212292;28;20386;-83
2023/05/26 02:18:51;;;;;;;;;;;8.40;99.90;;;;;;8206149;28;19910;-84
2023/05/26 02:22:52;;;;;;;;;;;8.80;99.90;;;;;;8203040;28;20390;-83
2023/05/26 02:26:52;;;;;;;;;;;9.10;99.90;;;;;;8199460;28;19953;-83
2023/05/26 02:30:53;;;;;;;;;;;8.00;99.90;;;;;;8204735;28;19918;-83
2023/05/26 02:34:53;;;;;;;;;;;7.70;99.90;;;;;;8213064;28;20378;-84
2023/05/26 02:38:54;;;;;;;;;;;8.80;99.90;;;;;;8200469;28;19958;-83
2023/05/26 02:42:54;;;;;;;;;;;8.30;99.90;;;;;;8207603;28;20299;-83
2023/05/26 02:46:55;;;;;;;;;;;7.90;99.90;;;;;;8202730;28;19914;-83
2023/05/26 02:50:59;;;;;;;;;;;8.40;99.90;;;;;;8206312;28;20004;-84
2023/05/26 02:54:59;;;;;;;;;;;9.10;99.90;;;;;;8219285;28;19919;-83
2023/05/26 02:59:00;;;;;;;;;;;9.00;99.90;;;;;;8203903;28;20017;-83
2023/05/26 03:03:00;;;;;;;;;;;9.00;99.90;;;;;;8216926;28;20406;-83
2023/05/26 03:07:01;;;;;;;;;;;8.90;99.90;;;;;;8206735;28;19914;-83
2023/05/26 03:11:01;;;;;;;;;;;8.60;99.90;;;;;;8212289;28;19917;-83
2023/05/26 03:15:03;;;;;;;;;;;8.40;99.90;;;;;;8208726;28;19910;-84
2023/05/26 03:19:03;;;;;;;;;;;7.50;99.90;;;;;;8210670;28;19911;-83
2023/05/26 03:23:04;;;;;;;;;;;9.20;99.90;;;;;;8203584;28;20415;-83
2023/05/26 03:27:05;;;;;;;;;;;9.50;99.90;;;;;;8203261;28;19914;-83
2023/05/26 03:31:06;;;;;;;;;;;9.10;99.90;;;;;;8197346;28;20275;-83
2023/05/26 03:35:06;;;;;;;;;;;8.80;99.90;;;;;;8212730;28;19914;-83
2023/05/26 03:39:07;;;;;;;;;;;8.00;99.90;;;;;;8206917;28;20616;-83
2023/05/26 03:43:07;;;;;;;;;;;8.60;99.90;;;;;;8196914;28;19919;-83
2023/05/26 03:47:09;;;;;;;;;;;8.80;99.90;;;;;;8201373;28;19914;-84
2023/05/26 03:51:09;;;;;;;;;;;8.30;99.90;;;;;;8201691;28;20364;-83
2023/05/26 03:55:10;;;;;;;;;;;9.00;99.90;;;;;;8208784;28;20009;-83
2023/05/26 03:59:11;;;;;;;;;;;9.10;99.90;;;;;;8203257;28;19910;-83
2023/05/26 04:03:11;;;;;;;;;;;8.80;99.90;;;;;;8207317;28;19911;-84
2023/05/26 04:07:12;;;;;;;;;;;9.30;99.90;;;;;;8201073;28;19961;-83
2023/05/26 04:11:13;;;;;;;;;;;9.30;99.90;;;;;;8212113;28;19917;-84
2023/05/26 04:15:13;;;;;;;;;;;10.10;99.90;;;;;;8204894;28;20363;-84
2023/05/26 04:19:14;;;;;;;;;;;10.60;99.90;;;;;;8212119;28;20023;-83
2023/05/26 04:23:15;;;;;;;;;;;11.20;99.90;;;;;;8207814;28;19962;-84
2023/05/26 04:27:15;;;;;;;;;;;11.10;99.90;;;;;;8209495;28;19926;-84
2023/05/26 04:31:16;;;;;;;;;;;10.80;99.90;;;;;;8194285;28;19958;-84
2023/05/26 04:35:19;;;;;;;;;;;11.10;99.90;;;;;;8217559;28;20078;-83
2023/05/26 04:39:20;;;;;;;;;;;11.50;99.90;;;;;;8207483;28;19910;-84
2023/05/26 04:43:21;;;;;;;;;;;11.70;99.90;;;;;;8199960;28;19919;-84
2023/05/26 04:47:23;;;;;;;;;;;11.20;99.90;;;;;;8206020;28;20277;-84
2023/05/26 04:51:27;;;;;;;;;;;12.50;99.90;;;;;;8200964;28;19914;-84
2023/05/26 04:55:28;;;;;;;;;;;13.00;99.90;;;;;;8204386;28;19925;-84
2023/05/26 04:59:29;;;;;;;;;;;13.60;99.90;;;;;;8201176;28;20269;-84
2023/05/26 05:03:32;;;;;;;;;;;14.70;99.90;;;;;;8206222;28;19910;-85
2023/05/26 05:07:32;;;;;;;;;;;13.60;99.90;;;;;;8214297;28;19988;-84
2023/05/26 05:11:33;;;;;;;;;;;14.50;99.90;;;;;;8218821;28;19914;-85
2023/05/26 05:15:33;;;;;;;;;;;14.00;99.90;;;;;;8211969;28;20010;-87
2023/05/26 05:19:34;;;;;;;;;;;14.80;99.90;;;;;;8212387;28;19922;-86
2023/05/26 05:23:35;;;;;;;;;;;15.30;99.90;;;;;;8206542;28;19961;-85
2023/05/26 05:27:35;;;;;;;;;;;16.30;99.90;;;;;;8209512;28;20292;-85
2023/05/26 05:31:39;;;;;;;;;;;16.40;99.90;;;;;;8212693;28;19921;-85
2023/05/26 05:35:39;;;;;;;;;;;16.80;99.90;;;;;;8217669;28;19914;-85
2023/05/26 05:39:40;;;;;;;;;;;17.00;99.90;;;;;;8224725;28;19917;-85
2023/05/26 05:43:40;;;;;;;;;;;16.60;99.90;;;;;;8214673;28;20496;-85
2023/05/26 05:47:41;;;;;;;;;;;18.00;99.90;;;;;;8205067;28;20323;-85
2023/05/26 05:51:41;;;;;;;;;;;18.30;99.90;;;;;;8214121;28;19969;-85
2023/05/26 05:55:43;;;;;;;;;;;19.30;99.90;;;;;;8205745;28;19914;-85
2023/05/26 05:59:43;;;;;;;;;;;18.90;99.90;;;;;;8211702;28;19923;-85
2023/05/26 06:03:44;;;;;;;;;;;18.40;99.90;;;;;;8212851;28;20376;-85
2023/05/26 06:07:45;;;;;;;;;;;19.00;99.90;;;;;;8210154;28;20009;-85
2023/05/26 06:11:45;;;;;;;;;;;19.60;99.90;;;;;;8209055;28;19910;-85
2023/05/26 06:15:46;;;;;;;;;;;19.80;99.90;;;;;;8210194;28;19911;-85
2023/05/26 06:19:46;;;;;;;;;;;19.90;99.90;;;;;;8213475;28;20379;-86
2023/05/26 06:23:47;;;;;;;;;;;19.20;99.90;;;;;;8205278;28;19922;-85
2023/05/26 06:27:48;;;;;;;;;;;18.50;99.90;;;;;;8211628;28;20302;-85
2023/05/26 06:31:48;;;;;;;;;;;18.90;99.90;;;;;;8206024;28;20000;-85
2023/05/26 06:35:49;;;;;;;;;;;18.60;99.90;;;;;;8218605;28;20331;-85
2023/05/26 06:39:49;;;;;;;;;;;18.20;99.90;;;;;;8204215;28;19921;-85
2023/05/26 06:43:50;;;;;;;;;;;18.50;99.90;;;;;;8203073;28;19918;-85
2023/05/26 06:47:50;;;;;;;;;;;18.70;99.90;;;;;;8216973;28;19919;-85
2023/05/26 06:51:51;;;;;;;;;;;19.40;99.90;;;;;;8209673;28;19957;-86
2023/05/26 06:55:52;;;;;;;;;;;19.80;99.90;;;;;;8215842;28;20368;-85
2023/05/26 06:59:55;;;;;;;;;;;20.20;99.90;;;;;;8211904;28;19968;-85
2023/05/26 07:03:56;;;;;;;;;;;20.50;99.90;;;;;;8210888;28;19914;-84
2023/05/26 07:07:57;;;;;;;;;;;21.20;99.90;;;;;;8217161;28;19925;-85
2023/05/26 07:11:57;;;;;;;;;;;22.10;99.90;;;;;;8216116;28;19923;-85
2023/05/26 07:15:58;;;;;;;;;;;22.30;99.90;;;;;;8206476;28;19981;-85
2023/05/26 07:19:59;;;;;;;;;;;22.10;99.90;;;;;;8205512;28;19910;-85
2023/05/26 07:23:59;;;;;;;;;;;23.70;99.90;;;;;;8185525;28;19926;-85
2023/05/26 07:28:00;;;;;;;;;;;22.50;99.90;;;;;;8208895;28;19914;-85
2023/05/26 07:32:02;;;;;;;;;;;22.10;99.90;;;;;;8198129;28;22066;-85
2023/05/26 07:36:06;;;;;;;;;;;22.90;99.90;;;;;;8202957;28;20422;-85
2023/05/26 07:40:09;;;;;;;;;;;23.00;99.90;;;;;;8208743;28;19910;-85
2023/05/26 07:44:10;;;;;;;;;;;22.30;99.90;;;;;;8208114;28;19918;-85
2023/05/26 07:48:14;;;;;;;;;;;22.30;99.90;;;;;;8205799;28;19988;-85
2023/05/26 07:52:15;;;;;;;;;;;22.60;99.90;;;;;;8203533;28;19914;-85
2023/05/26 07:56:15;;;;;;;;;;;22.60;99.90;;;;;;8199790;28;19914;-85
2023/05/26 08:00:16;;;;;;;;;;;22.30;99.90;;;;;;8194912;28;19942;-85
2023/05/26 08:04:23;;;;;;;;;;;22.70;99.90;;;;;;8203843;28;19977;-85
2023/05/26 08:08:23;;;;;;;;;;;23.00;99.90;;;;;;8209145;28;19972;-85
2023/05/26 08:12:24;;;;;;;;;;;22.00;99.90;;;;;;8203856;28;19914;-85
2023/05/26 08:16:25;;;;;;;;;;;22.30;99.90;;;;;;8201259;28;19950;-87
2023/05/26 08:20:28;;;;;;;;;;;23.50;99.90;;;;;;8200442;28;19915;-86
2023/05/26 08:24:31;;;;;;;;;;;23.20;99.90;;;;;;8205879;28;19965;-85
2023/05/26 08:28:32;;;;;;;;;;;23.20;99.90;;;;;;8210960;28;20423;-85
2023/05/26 08:32:34;;;;;;;;;;;23.40;99.90;;;;;;8205443;28;19918;-85
2023/05/26 08:36:36;;;;;;;;;;;22.60;99.90;;;;;;8199747;28;19969;-85
2023/05/26 08:40:42;;;;;;;;;;;23.20;99.90;;;;;;8207403;28;19929;-85
2023/05/26 08:44:44;;;;;;;;;;;22.60;99.90;;;;;;8199080;28;19920;-85
2023/05/26 08:48:45;;;;;;;;;;;23.40;99.90;;;;;;8205914;28;19945;-85
2023/05/26 08:52:47;;;;;;;;;;;23.50;99.90;;;;;;8214427;28;19918;-85
2023/05/26 08:56:48;;;;;;;;;;;22.90;99.90;;;;;;8218954;28;19997;-85
2023/05/26 09:00:52;;;;;;;;;;;23.10;99.90;;;;;;8203999;28;19914;-85
2023/05/26 09:04:53;;;;;;;;;;;23.20;99.90;;;;;;8211347;28;19910;-85
2023/05/26 09:08:53;;;;;;;;;;;22.60;99.90;;;;;;8203561;28;19926;-85
2023/05/26 09:13:01;;;;;;;;;;;22.60;99.90;;;;;;8217387;28;21047;-86
2023/05/26 09:17:02;;;;;;;;;;;23.20;99.90;;;;;;8226082;28;19922;-85
2023/05/26 09:21:03;;;;;;;;;;;24.00;99.90;;;;;;8212126;28;19958;-85
2023/05/26 09:25:04;;;;;;;;;;;23.50;99.90;;;;;;8206101;28;20475;-85
2023/05/26 09:29:10;;;;;;;;;;;23.60;99.90;;;;;;8205240;28;19946;-85
2023/05/26 09:33:16;;;;;;;;;;;23.50;99.90;;;;;;8207314;28;19953;-85
2023/05/26 09:37:26;;;;;;;;;;;23.30;99.90;;;;;;8205634;28;20376;-85
2023/05/26 09:41:45;;;;;;;;;;;23.10;99.90;;;;;;8202965;28;19920;-86
2023/05/26 09:45:49;;;;;;;;;;;23.60;99.90;;;;;;8234019;28;20022;-84
2023/05/26 09:49:51;;;;;;;;;;;23.50;99.90;;;;;;8210384;28;20401;-85
2023/05/26 09:53:51;;;;;;;;;;;23.80;99.90;;;;;;8209434;28;19911;-86
2023/05/26 09:57:53;;;;;;;;;;;23.70;99.90;;;;;;8210070;28;19910;-85
2023/05/26 10:01:54;;;;;;;;;;;23.80;99.90;;;;;;8205172;28;19914;-85
2023/05/26 10:05:56;;;;;;;;;;;23.50;99.90;;;;;;8214723;28;21260;-86
2023/05/26 10:10:00;;;;;;;;;;;24.20;99.90;;;;;;8211104;28;19914;-85
2023/05/26 10:14:01;;;;;;;;;;;24.40;99.90;;;;;;8212438;28;19918;-85
2023/05/26 10:18:02;;;;;;;;;;;24.20;99.90;;;;;;8207318;28;19914;-85
2023/05/26 10:22:12;;;;;;;;;;;23.80;99.90;;;;;;8209729;28;20463;-86
2023/05/26 10:26:17;;;;;;;;;;;24.50;99.90;;;;;;8202075;28;20396;-86
2023/05/26 10:30:22;;;;;;;;;;;24.20;99.90;;;;;;8205140;28;19969;-85
2023/05/26 10:34:39;;;;;;;;;;;23.60;99.90;;;;;;8214729;28;19915;-85
2023/05/26 10:38:43;;;;;;;;;;;24.10;99.90;;;;;;8200055;28;19961;-86
2023/05/26 10:42:47;;;;;;;;;;;24.80;99.90;;;;;;8219158;28;20035;-85
2023/05/26 10:47:04;;;;;;;;;;;25.00;99.90;;;;;;8207110;28;20031;-86
2023/05/26 10:51:06;;;;;;;;;;;24.90;99.90;;;;;;8191793;28;19922;-85
2023/05/26 10:55:11;;;;;;;;;;;25.10;99.90;;;;;;8203339;28;19930;-85
2023/05/26 10:59:32;;;;;;;;;;;25.70;99.90;;;;;;8204491;28;19910;-85
2023/05/26 11:03:36;;;;;;;;;;;25.00;98.40;;;;;;8203257;28;19910;-84
2023/05/26 11:07:36;;;;;;;;;;;26.50;95.90;;;;;;8217387;28;19981;-84
2023/05/26 11:11:50;;;;;;;;;;;26.70;94.60;;;;;;8200703;28;19914;-84
2023/05/26 11:16:08;;;;;;;;;;;27.00;91.20;;;;;;8202131;28;19998;-85
2023/05/26 11:20:15;;;;;;;;;;;26.80;94.20;;;;;;8229420;28;19921;-84
2023/05/26 11:24:15;;;;;;;;;;;27.60;92.40;;;;;;8197669;28;19957;-84
2023/05/26 11:28:21;;;;;;;;;;;26.30;93.80;;;;;;8205509;28;19914;-84
2023/05/26 11:32:24;;;;;;;;;;;26.70;92.90;;;;;;8202166;28;19914;-84
2023/05/26 11:36:24;;;;;;;;;;;28.30;88.60;;;;;;8201945;28;19915;-84
2023/05/26 11:40:25;;;;;;;;;;;26.90;91.40;;;;;;8200867;28;19918;-83
2023/05/26 11:44:30;;;;;;;;;;;28.20;90.70;;;;;;8214096;28;19922;-84
2023/05/26 11:48:36;;;;;;;;;;;29.50;88.50;;;;;;8199531;28;19918;-83
2023/05/26 11:52:46;;;;;;;;;;;28.70;84.10;;;;;;8204935;28;19965;-84
2023/05/26 11:56:47;;;;;;;;;;;28.60;84.70;;;;;;8219514;28;19946;-85
2023/05/26 12:00:48;;;;;;;;;;;29.40;85.10;;;;;;8204058;28;19918;-84
2023/05/26 12:04:49;;;;;;;;;;;28.30;88.40;;;;;;8192990;28;20031;-85
2023/05/26 12:08:53;;;;;;;;;;;28.00;86.80;;;;;;8202273;28;19922;-84
2023/05/26 12:12:56;;;;;;;;;;;27.00;87.10;;;;;;8200457;28;19914;-84
2023/05/26 12:16:56;;;;;;;;;;;25.20;91.60;;;;;;8204200;28;20332;-84
2023/05/26 12:20:57;;;;;;;;;;;25.50;93.30;;;;;;8197576;28;20006;-85
2023/05/26 12:25:00;;;;;;;;;;;27.40;90.80;;;;;;8197571;28;19918;-84
2023/05/26 12:29:14;;;;;;;;;;;26.30;88.10;;;;;;8195692;28;19918;-84
2023/05/26 12:33:18;;;;;;;;;;;25.90;93.30;;;;;;8203867;28;20057;-84
2023/05/26 12:37:22;;;;;;;;;;;25.30;93.50;;;;;;8204387;28;19910;-84
2023/05/26 12:41:23;;;;;;;;;;;25.60;91.90;;;;;;8221816;28;19921;-84
2023/05/26 12:45:26;;;;;;;;;;;26.30;92.90;;;;;;8197902;28;19919;-84
2023/05/26 12:49:27;;;;;;;;;;;28.10;88.30;;;;;;8217167;28;19974;-84
2023/05/26 12:53:31;;;;;;;;;;;30.60;83.30;;;;;;8210831;28;20568;-84
2023/05/26 12:57:35;;;;;;;;;;;28.40;84.70;;;;;;8203932;28;19922;-86
2023/05/26 13:06:32;;;;;;;;;;;27.20;86.60;;;;;;8131535;29;19971;-85
2023/05/26 13:20:22;;;;;;;;;;;29.80;73.50;;;;;;8109564;29;19966;-85
2023/05/26 13:24:32;;;;;;;;;;;25.90;87.10;;;;;;8110705;29;19930;-86
2023/05/26 13:28:44;;;;;;;;;;;25.80;91.20;;;;;;8144616;28;19922;-85
2023/05/26 13:32:54;;;;;;;;;;;28.30;88.60;;;;;;8197309;28;19914;-84
2023/05/26 13:36:57;;;;;;;;;;;28.90;82.10;;;;;;8207068;28;19985;-84
2023/05/26 13:40:58;;;;;;;;;;;28.40;81.30;;;;;;8203459;28;19915;-84
2023/05/26 13:45:09;;;;;;;;;;;28.10;82.00;;;;;;8199715;28;20009;-84
2023/05/26 13:49:09;;;;;;;;;;;28.70;77.60;;;;;;8204321;28;19961;-84
2023/05/26 13:53:10;;;;;;;;;;;27.90;78.30;;;;;;8203719;28;19958;-84
2023/05/26 13:57:14;;;;;;;;;;;25.80;79.20;;;;;;8214987;28;19915;-84
2023/05/26 14:01:20;;;;;;;;;;;25.40;90.00;;;;;;8208508;28;20487;-84
2023/05/26 14:05:23;;;;;;;;;;;25.40;84.90;;;;;;8206080;28;19915;-84
2023/05/26 14:09:27;;;;;;;;;;;26.20;87.90;;;;;;8200912;28;19926;-85
2023/05/26 14:13:31;;;;;;;;;;;28.80;75.80;;;;;;8220901;28;20009;-84
2023/05/26 14:17:34;;;;;;;;;;;27.90;76.40;;;;;;8200865;28;19946;-84
2023/05/26 14:21:35;;;;;;;;;;;27.70;81.20;;;;;;8203783;28;20568;-84
2023/05/26 14:25:36;;;;;;;;;;;27.80;77.80;;;;;;8202966;28;19915;-84
2023/05/26 14:29:39;;;;;;;;;;;26.40;85.70;;;;;;8188089;28;19919;-82
2023/05/26 14:33:49;;;;;;;;;;;24.00;86.30;;;;;;8195939;28;19914;-84
2023/05/26 14:37:54;;;;;;;;;;;23.80;90.20;;;;;;8205921;28;19922;-84
2023/05/26 14:42:01;;;;;;;;;;;26.70;86.20;;;;;;8208319;28;19915;-83
2023/05/26 14:46:04;;;;;;;;;;;27.90;81.30;;;;;;8199408;28;19930;-85
2023/05/26 14:50:05;;;;;;;;;;;29.70;77.10;;;;;;8202461;28;19919;-84
2023/05/26 14:58:47;;;;;;;;;;;27.40;81.60;;;;;;8202362;28;19953;-84
2023/05/26 15:02:53;;;;;;;;;;;29.20;74.70;;;;;;8208478;28;19925;-85
2023/05/26 15:06:54;;;;;;;;;;;29.70;74.60;;;;;;8180407;29;19966;-85
2023/05/26 15:11:00;;;;;;;;;;;28.70;76.20;;;;;;8172898;28;19940;-85
2023/05/26 15:15:03;;;;;;;;;;;28.10;76.80;;;;;;8177709;28;20001;-83
2023/05/26 15:19:16;;;;;;;;;;;29.10;75.10;;;;;;8174188;29;19969;-84
2023/05/26 15:23:22;;;;;;;;;;;27.40;78.70;;;;;;8177873;28;20279;-84
2023/05/26 15:27:26;;;;;;;;;;;26.20;87.20;;;;;;8164927;28;19929;-84
2023/05/26 15:31:27;;;;;;;;;;;23.90;90.50;;;;;;8179175;29;20280;-83
2023/05/26 15:35:33;;;;;;;;;;;23.20;91.10;;;;;;8187464;29;19918;-86
2023/05/26 15:39:34;;;;;;;;;;;24.00;91.40;;;;;;8170113;28;19912;-84
2023/05/26 15:43:37;;;;;;;;;;;24.70;90.90;;;;;;8169880;28;20383;-84
2023/05/26 15:47:38;;;;;;;;;;;24.40;90.90;;;;;;8159788;29;20202;-83
2023/05/26 15:51:38;;;;;;;;;;;23.10;92.10;;;;;;8172051;28;19946;-83
2023/05/26 15:55:39;;;;;;;;;;;22.30;93.70;;;;;;8175483;29;19925;-83
2023/05/26 15:59:39;;;;;;;;;;;21.80;95.00;;;;;;8174993;28;19956;-84
2023/05/26 16:03:40;;;;;;;;;;;21.90;94.60;;;;;;8186746;28;19912;-84
2023/05/26 16:07:41;;;;;;;;;;;21.90;94.70;;;;;;8186453;29;19926;-83
2023/05/26 16:11:41;;;;;;;;;;;21.80;94.70;;;;;;8184381;29;20276;-82
2023/05/26 16:15:45;;;;;;;;;;;22.10;93.70;;;;;;8170132;29;19998;-84
2023/05/26 16:19:45;;;;;;;;;;;22.50;94.20;;;;;;8175042;29;19910;-84
2023/05/26 16:23:46;;;;;;;;;;;22.60;93.30;;;;;;8171051;29;19919;-84
2023/05/26 16:27:46;;;;;;;;;;;22.00;95.00;;;;;;8177296;29;19923;-83
2023/05/26 16:31:47;;;;;;;;;;;22.30;96.10;;;;;;8179089;29;19918;-83
2023/05/26 16:35:52;;;;;;;;;;;22.30;96.90;;;;;;8197197;29;19918;-84
2023/05/26 16:39:55;;;;;;;;;;;22.20;95.50;;;;;;8173537;29;20709;-85
2023/05/26 16:43:56;;;;;;;;;;;22.20;95.20;;;;;;8176258;29;20376;-84
2023/05/26 16:47:58;;;;;;;;;;;21.80;95.10;;;;;;8170387;29;19926;-83
2023/05/26 16:51:58;;;;;;;;;;;22.20;96.50;;;;;;8171923;29;19914;-84
2023/05/26 16:55:59;;;;;;;;;;;21.50;96.20;;;;;;8179904;28;19915;-83
2023/05/26 16:59:59;;;;;;;;;;;21.30;96.80;;;;;;8193348;28;19914;-84
2023/05/26 17:04:00;;;;;;;;;;;21.20;97.20;;;;;;8178572;29;19914;-83
2023/05/26 17:08:00;;;;;;;;;;;21.10;98.20;;;;;;8183569;29;20432;-85
2023/05/26 17:12:01;;;;;;;;;;;20.90;97.40;;;;;;8184410;28;19911;-85
2023/05/26 17:16:07;;;;;;;;;;;21.10;97.60;;;;;;8186771;28;19962;-85
2023/05/26 17:20:08;;;;;;;;;;;20.80;98.10;;;;;;8184411;28;20010;-85
2023/05/26 17:24:08;;;;;;;;;;;21.10;98.70;;;;;;8178290;29;19915;-86
2023/05/26 17:32:47;;;;;;;;;;;20.60;97.60;;;;;;8181026;29;19977;-85
2023/05/26 17:36:48;;;;;;;;;;;20.50;97.90;;;;;;8175698;29;20381;-83
2023/05/26 17:40:48;;;;;;;;;;;20.40;99.30;;;;;;8172084;29;20257;-84
2023/05/26 17:44:49;;;;;;;;;;;20.50;98.70;;;;;;8165797;29;19922;-84
2023/05/26 17:48:50;;;;;;;;;;;20.00;99.90;;;;;;8188409;29;19919;-83
2023/05/26 17:52:50;;;;;;;;;;;20.10;99.90;;;;;;8196819;29;19957;-83
2023/05/26 17:56:51;;;;;;;;;;;20.10;99.80;;;;;;8173165;28;19939;-83
2023/05/26 18:00:51;;;;;;;;;;;20.10;99.90;;;;;;8182122;28;19914;-84
2023/05/26 18:04:52;;;;;;;;;;;20.10;99.90;;;;;;8186080;28;19946;-83
2023/05/26 18:08:52;;;;;;;;;;;19.70;99.90;;;;;;8188186;29;19925;-83
2023/05/26 18:12:53;;;;;;;;;;;19.80;99.90;;;;;;8180855;29;19911;-83
2023/05/26 18:16:53;;;;;;;;;;;19.30;99.90;;;;;;8189059;29;20304;-83
2023/05/26 18:20:54;;;;;;;;;;;19.30;99.90;;;;;;8182541;29;19915;-83
2023/05/26 18:24:55;;;;;;;;;;;19.10;99.90;;;;;;8180682;29;19949;-83
2023/05/26 18:28:55;;;;;;;;;;;18.70;99.90;;;;;;8180271;29;19914;-83
2023/05/26 18:32:57;;;;;;;;;;;18.20;99.90;;;;;;8192339;28;19985;-82
2023/05/26 18:36:58;;;;;;;;;;;17.80;99.90;;;;;;8174078;28;19919;-82
2023/05/26 18:40:58;;;;;;;;;;;17.80;99.90;;;;;;8180779;28;19917;-83
2023/05/26 18:44:59;;;;;;;;;;;17.30;99.90;;;;;;8176604;29;19919;-83
2023/05/26 18:49:00;;;;;;;;;;;17.30;99.90;;;;;;8167268;29;20594;-82
2023/05/26 18:53:02;;;;;;;;;;;17.10;99.90;;;;;;8171628;29;19919;-83
2023/05/26 18:57:02;;;;;;;;;;;16.70;99.90;;;;;;8168155;29;19921;-83
2023/05/26 19:01:03;;;;;;;;;;;16.50;99.90;;;;;;8172153;28;19915;-83
2023/05/26 19:05:03;;;;;;;;;;;16.20;99.90;;;;;;8171648;28;19921;-83
2023/05/26 19:09:05;;;;;;;;;;;16.20;99.90;;;;;;8171580;29;19966;-83
2023/05/26 19:13:06;;;;;;;;;;;16.00;99.90;;;;;;8171352;29;19914;-83
2023/05/26 19:17:06;;;;;;;;;;;15.90;99.90;;;;;;8181299;29;19915;-83
2023/05/26 19:21:07;;;;;;;;;;;15.30;99.90;;;;;;8172628;29;19917;-83
2023/05/26 19:25:08;;;;;;;;;;;15.50;99.90;;;;;;8184568;28;19915;-83
2023/05/26 19:29:11;;;;;;;;;;;15.10;99.90;;;;;;8174681;29;19922;-82
2023/05/26 19:33:11;;;;;;;;;;;15.10;99.90;;;;;;8179910;29;20432;-83
2023/05/26 19:37:12;;;;;;;;;;;14.70;99.90;;;;;;8180981;29;19922;-83
2023/05/26 19:41:12;;;;;;;;;;;14.20;99.90;;;;;;8186956;29;19911;-83
2023/05/26 19:45:13;;;;;;;;;;;14.40;99.90;;;;;;8184792;29;20388;-83
2023/05/26 19:49:14;;;;;;;;;;;14.30;99.90;;;;;;8184362;29;19950;-83
2023/05/26 19:53:15;;;;;;;;;;;14.30;99.90;;;;;;8178602;29;19918;-83
2023/05/26 19:57:16;;;;;;;;;;;14.10;99.90;;;;;;8181923;28;19917;-83
2023/05/26 20:01:17;;;;;;;;;;;14.00;99.90;;;;;;8183439;29;19923;-84
2023/05/26 20:05:19;;;;;;;;;;;13.90;99.90;;;;;;8179538;29;19969;-83
2023/05/26 20:09:19;;;;;;;;;;;13.50;99.90;;;;;;8187196;28;19937;-83
2023/05/26 20:13:19;;;;;;;;;;;13.90;99.90;;;;;;8190589;29;19922;-83
2023/05/26 20:17:20;;;;;;;;;;;13.60;99.90;;;;;;8177315;28;20434;-83
2023/05/26 20:21:20;;;;;;;;;;;13.30;99.90;;;;;;8175862;29;20288;-83
2023/05/26 20:25:21;;;;;;;;;;;14.10;99.90;;;;;;8172893;29;19911;-82
2023/05/26 20:29:22;;;;;;;;;;;13.20;99.90;;;;;;8177721;29;19954;-82
2023/05/26 20:33:22;;;;;;;;;;;12.90;99.90;;;;;;8189803;29;19943;-83
2023/05/26 20:37:25;;;;;;;;;;;12.80;99.90;;;;;;8175379;29;20473;-83
2023/05/26 20:41:26;;;;;;;;;;;13.00;99.90;;;;;;8167761;29;19921;-83
2023/05/26 20:45:27;;;;;;;;;;;12.80;99.90;;;;;;8171260;29;19923;-83
2023/05/26 20:49:28;;;;;;;;;;;12.60;99.90;;;;;;8183812;29;20141;-83
2023/05/26 20:53:28;;;;;;;;;;;12.40;99.90;;;;;;8184497;29;19961;-85
2023/05/26 20:57:29;;;;;;;;;;;12.60;99.90;;;;;;8198537;29;20480;-85
2023/05/26 21:01:29;;;;;;;;;;;12.80;99.90;;;;;;8189143;29;19970;-85
2023/05/26 21:05:30;;;;;;;;;;;12.30;99.90;;;;;;8183815;29;19914;-84
2023/05/26 21:09:31;;;;;;;;;;;12.40;99.90;;;;;;8193731;29;20328;-84
2023/05/26 21:13:32;;;;;;;;;;;12.40;99.90;;;;;;8183713;29;19942;-85
2023/05/26 21:17:32;;;;;;;;;;;12.90;99.90;;;;;;8178441;29;20442;-85
2023/05/26 21:21:33;;;;;;;;;;;12.60;99.90;;;;;;8191006;29;19965;-85
2023/05/26 21:25:33;;;;;;;;;;;12.60;99.90;;;;;;8189590;29;20395;-84
2023/05/26 21:29:34;;;;;;;;;;;12.70;99.90;;;;;;8183405;29;19914;-84
2023/05/26 21:33:34;;;;;;;;;;;12.50;99.90;;;;;;8194029;28;19915;-84
2023/05/26 21:37:35;;;;;;;;;;;12.70;99.90;;;;;;8186135;29;19922;-84
2023/05/26 21:41:37;;;;;;;;;;;12.90;99.90;;;;;;8172828;28;19938;-85
2023/05/26 21:45:37;;;;;;;;;;;12.50;99.90;;;;;;8172968;29;19919;-85
2023/05/26 21:49:38;;;;;;;;;;;12.40;99.90;;;;;;8191778;28;20371;-84
2023/05/26 21:53:38;;;;;;;;;;;12.80;99.90;;;;;;8191529;29;20401;-86
2023/05/26 21:57:39;;;;;;;;;;;12.30;99.90;;;;;;8195842;29;19915;-86
2023/05/26 22:01:39;;;;;;;;;;;12.70;99.90;;;;;;8184475;28;19911;-85
2023/05/26 22:05:40;;;;;;;;;;;12.50;99.90;;;;;;8185001;29;19968;-85
2023/05/26 22:09:41;;;;;;;;;;;12.80;99.90;;;;;;8194996;29;19914;-85
2023/05/26 22:13:42;;;;;;;;;;;12.40;99.90;;;;;;8186111;29;19911;-85
2023/05/26 22:17:42;;;;;;;;;;;12.60;99.90;;;;;;8187095;29;20301;-84
2023/05/26 22:21:43;;;;;;;;;;;12.50;99.90;;;;;;8203601;29;20009;-84
2023/05/26 22:25:43;;;;;;;;;;;12.70;99.90;;;;;;8190095;29;19911;-84
2023/05/26 22:29:44;;;;;;;;;;;13.60;99.90;;;;;;8199762;29;19919;-84
2023/05/26 22:33:44;;;;;;;;;;;13.00;99.90;;;;;;8201781;29;19911;-84
2023/05/26 22:37:45;;;;;;;;;;;12.80;99.90;;;;;;8184300;29;20384;-85
2023/05/26 22:41:45;;;;;;;;;;;13.20;99.90;;;;;;8179890;29;19981;-85
2023/05/26 22:45:46;;;;;;;;;;;13.30;99.90;;;;;;8183296;28;19919;-85
2023/05/26 22:49:47;;;;;;;;;;;12.70;99.90;;;;;;8192402;28;19937;-85
2023/05/26 22:53:47;;;;;;;;;;;13.20;99.90;;;;;;8193911;29;19911;-85
2023/05/26 22:58:22;;;;;;;;;;;13.20;99.90;;;;;;8199095;29;20412;-85
2023/05/26 23:02:22;;;;;;;;;;;13.00;99.90;;;;;;8196963;28;19917;-83
2023/05/26 23:06:23;;;;;;;;;;;13.00;99.90;;;;;;8196485;29;19910;-83
2023/05/26 23:10:24;;;;;;;;;;;13.70;99.90;;;;;;8199275;28;19946;-84
2023/05/26 23:14:24;;;;;;;;;;;13.40;99.90;;;;;;8202558;28;19911;-84
2023/05/26 23:18:25;;;;;;;;;;;13.80;99.90;;;;;;8197918;29;19933;-85
2023/05/26 23:22:26;;;;;;;;;;;13.10;99.90;;;;;;8194946;28;19986;-85
2023/05/26 23:26:27;;;;;;;;;;;13.30;99.90;;;;;;8197185;28;19917;-85
2023/05/26 23:30:28;;;;;;;;;;;14.20;99.90;;;;;;8205125;29;19943;-85
2023/05/26 23:34:28;;;;;;;;;;;13.50;99.90;;;;;;8204192;29;19926;-85
2023/05/26 23:38:30;;;;;;;;;;;13.90;99.90;;;;;;8203141;28;19954;-86
2023/05/26 23:42:32;;;;;;;;;;;13.50;99.90;;;;;;8204032;29;19910;-85
2023/05/26 23:46:33;;;;;;;;;;;13.40;99.90;;;;;;8194358;28;19958;-84
2023/05/26 23:50:33;;;;;;;;;;;13.80;99.90;;;;;;8183207;29;19921;-84
2023/05/26 23:54:34;;;;;;;;;;;13.40;99.90;;;;;;8187594;29;20316;-84
2023/05/26 23:58:34;;;;;;;;;;;13.60;99.90;;;;;;8193487;29;20292;-85
